sensor_id;sensor_type;location;lat;lon;timestamp;P1;P2;P0
62981;PMS5003;49075;53.988;27.678;2022-08-01T00:00:56;25;25;16
62981;PMS5003;49075;53.988;27.678;2022-08-01T00:05:56;22;22;16
62981;PMS5003;49075;53.988;27.678;2022-08-01T00:10:56;22.5;22.5;15.5
62981;PMS5003;49075;53.988;27.678;2022-08-01T00:15:56;22.5;22.5;15.5
62981;PMS5003;49075;53.988;27.678;2022-08-01T00:20:56;22.5;22.5;15.5
62981;PMS5003;49075;53.988;27.678;2022-08-01T00:25:56;22.5;22.5;15.5
62981;PMS5003;49075;53.988;27.678;2022-08-01T00:30:56;22.5;22.5;15.5
62981;PMS5003;49075;53.988;27.678;2022-08-01T00:35:56;22.5;22.5;15.5
62981;PMS5003;49075;53.988;27.678;2022-08-01T00:40:56;21;18;13
62981;PMS5003;49075;53.988;27.678;2022-08-01T00:45:56;21;18;13
62981;PMS5003;49075;53.988;27.678;2022-08-01T00:50:56;21;18;13
62981;PMS5003;49075;53.988;27.678;2022-08-01T00:55:56;21;18;13
62981;PMS5003;49075;53.988;27.678;2022-08-01T01:00:56;21;18;13
62981;PMS5003;49075;53.988;27.678;2022-08-01T01:06:01;21;18;13
62981;PMS5003;49075;53.988;27.678;2022-08-01T01:10:57;21;18;13
62981;PMS5003;49075;53.988;27.678;2022-08-01T01:15:58;21;18;13
62981;PMS5003;49075;53.988;27.678;2022-08-01T01:20:58;21;18;13
62981;PMS5003;49075;53.988;27.678;2022-08-01T01:26:01;21;18;13
62981;PMS5003;49075;53.988;27.678;2022-08-01T01:30:56;21;18;13
62981;PMS5003;49075;53.988;27.678;2022-08-01T01:35:57;21;18;13
62981;PMS5003;49075;53.988;27.678;2022-08-01T01:40:56;21;18;13
62981;PMS5003;49075;53.988;27.678;2022-08-01T01:45:56;21;18;13
62981;PMS5003;49075;53.988;27.678;2022-08-01T01:50:56;21;18;13
62981;PMS5003;49075;53.988;27.678;2022-08-01T01:55:56;21;18;13
62981;PMS5003;49075;53.988;27.678;2022-08-01T02:00:56;21;18;13
62981;PMS5003;49075;53.988;27.678;2022-08-01T02:05:56;21;18;13
62981;PMS5003;49075;53.988;27.678;2022-08-01T02:10:56;21;18;13
62981;PMS5003;49075;53.988;27.678;2022-08-01T02:15:56;21;18;13
62981;PMS5003;49075;53.988;27.678;2022-08-01T02:20:56;22;22;15
62981;PMS5003;49075;53.988;27.678;2022-08-01T02:25:56;22;22;15
62981;PMS5003;49075;53.988;27.678;2022-08-01T02:30:56;24;24;15
62981;PMS5003;49075;53.988;27.678;2022-08-01T02:35:56;24;24;15
62981;PMS5003;49075;53.988;27.678;2022-08-01T02:40:56;21.5;21.5;14.5
62981;PMS5003;49075;53.988;27.678;2022-08-01T02:45:57;16.8;16.6;11.6
62981;PMS5003;49075;53.988;27.678;2022-08-01T02:50:57;17.5;16.5;10.5
62981;PMS5003;49075;53.988;27.678;2022-08-01T02:55:56;24;22.5;16
62981;PMS5003;49075;53.988;27.678;2022-08-01T03:00:56;16;16;10
62981;PMS5003;49075;53.988;27.678;2022-08-01T03:05:56;16;16;10
62981;PMS5003;49075;53.988;27.678;2022-08-01T03:10:56;20;19.5;15.3
62981;PMS5003;49075;53.988;27.678;2022-08-01T03:15:56;23.2;22.2;15.2
62981;PMS5003;49075;53.988;27.678;2022-08-01T03:20:56;18.3;17.3;13
62981;PMS5003;49075;53.988;27.678;2022-08-01T03:25:56;18.3;17.3;13
62981;PMS5003;49075;53.988;27.678;2022-08-01T03:30:56;18.3;17.3;13
62981;PMS5003;49075;53.988;27.678;2022-08-01T03:35:56;18.3;17.3;13
62981;PMS5003;49075;53.988;27.678;2022-08-01T03:40:58;18.3;17.3;13
62981;PMS5003;49075;53.988;27.678;2022-08-01T03:45:56;20;19.5;14.3
62981;PMS5003;49075;53.988;27.678;2022-08-01T03:50:56;22.4;22;15.6
62981;PMS5003;49075;53.988;27.678;2022-08-01T03:55:56;22.4;21;15.2
62981;PMS5003;49075;53.988;27.678;2022-08-01T04:00:56;21;21;14.8
62981;PMS5003;49075;53.988;27.678;2022-08-01T04:05:56;22;21.4;15.6
62981;PMS5003;49075;53.988;27.678;2022-08-01T04:10:56;21.6;20.8;15.2
62981;PMS5003;49075;53.988;27.678;2022-08-01T04:15:56;23;21.3;15.5
62981;PMS5003;49075;53.988;27.678;2022-08-01T04:20:56;18.4;17.8;12.2
62981;PMS5003;49075;53.988;27.678;2022-08-01T04:25:56;23;21.6;15.8
62981;PMS5003;49075;53.988;27.678;2022-08-01T04:30:56;21.2;20.2;13.6
62981;PMS5003;49075;53.988;27.678;2022-08-01T04:35:56;23;22.6;15.6
62981;PMS5003;49075;53.988;27.678;2022-08-01T04:40:56;20.7;20.7;13.3
62981;PMS5003;49075;53.988;27.678;2022-08-01T04:45:56;22.4;22;15.8
62981;PMS5003;49075;53.988;27.678;2022-08-01T04:50:56;24.4;24;15.8
62981;PMS5003;49075;53.988;27.678;2022-08-01T04:55:56;23.8;22.6;15.4
62981;PMS5003;49075;53.988;27.678;2022-08-01T05:00:56;21;20.6;14.2
62981;PMS5003;49075;53.988;27.678;2022-08-01T05:05:56;23.8;22.5;15.5
62981;PMS5003;49075;53.988;27.678;2022-08-01T05:10:56;21.2;19.8;14.4
62981;PMS5003;49075;53.988;27.678;2022-08-01T05:15:56;21.8;20.6;15
62981;PMS5003;49075;53.988;27.678;2022-08-01T05:20:56;27;27;18
62981;PMS5003;49075;53.988;27.678;2022-08-01T05:25:56;27;27;18
62981;PMS5003;49075;53.988;27.678;2022-08-01T05:30:56;27;27;18
62981;PMS5003;49075;53.988;27.678;2022-08-01T05:35:56;27;27;18
62981;PMS5003;49075;53.988;27.678;2022-08-01T05:40:56;27;27;18
62981;PMS5003;49075;53.988;27.678;2022-08-01T05:45:56;27;27;18
62981;PMS5003;49075;53.988;27.678;2022-08-01T05:50:56;27;27;18
62981;PMS5003;49075;53.988;27.678;2022-08-01T05:55:56;27;27;18
62981;PMS5003;49075;53.988;27.678;2022-08-01T06:00:56;35;31;21
62981;PMS5003;49075;53.988;27.678;2022-08-01T06:05:56;28.5;27;18.5
62981;PMS5003;49075;53.988;27.678;2022-08-01T06:10:56;33.5;31;20.5
62981;PMS5003;49075;53.988;27.678;2022-08-01T06:15:56;27.4;26.8;17.6
62981;PMS5003;49075;53.988;27.678;2022-08-01T06:20:56;28.2;26.4;18.6
62981;PMS5003;49075;53.988;27.678;2022-08-01T06:25:56;29.8;28;18.8
62981;PMS5003;49075;53.988;27.678;2022-08-01T06:30:56;30.4;28.4;19.2
62981;PMS5003;49075;53.988;27.678;2022-08-01T06:35:56;28.6;27.6;18.4
62981;PMS5003;49075;53.988;27.678;2022-08-01T06:40:56;29.8;26.6;17.8
62981;PMS5003;49075;53.988;27.678;2022-08-01T06:45:56;29.8;28.2;19
62981;PMS5003;49075;53.988;27.678;2022-08-01T06:50:56;25.8;25;17.2
62981;PMS5003;49075;53.988;27.678;2022-08-01T06:55:56;28.8;27.3;19.3
62981;PMS5003;49075;53.988;27.678;2022-08-01T07:00:56;29.4;27.8;19.2
62981;PMS5003;49075;53.988;27.678;2022-08-01T07:05:56;31.2;29.8;21
62981;PMS5003;49075;53.988;27.678;2022-08-01T07:10:56;30.4;28.4;19.6
62981;PMS5003;49075;53.988;27.678;2022-08-01T07:15:56;34.4;31.4;21.4
62981;PMS5003;49075;53.988;27.678;2022-08-01T07:20:56;32.8;30.6;21.2
62981;PMS5003;49075;53.988;27.678;2022-08-01T07:25:56;33.4;30.6;20.2
62981;PMS5003;49075;53.988;27.678;2022-08-01T07:30:56;34.4;31.6;21
62981;PMS5003;49075;53.988;27.678;2022-08-01T07:35:56;30.8;29.6;20.4
62981;PMS5003;49075;53.988;27.678;2022-08-01T07:40:56;31.6;30;21
62981;PMS5003;49075;53.988;27.678;2022-08-01T07:45:56;32.6;30.4;20.2
62981;PMS5003;49075;53.988;27.678;2022-08-01T07:50:57;33.4;30.6;21.2
62981;PMS5003;49075;53.988;27.678;2022-08-01T07:55:56;32.8;29.6;20.2
62981;PMS5003;49075;53.988;27.678;2022-08-01T08:00:56;30.8;28.5;20
62981;PMS5003;49075;53.988;27.678;2022-08-01T08:05:56;40;34.6;23.2
62981;PMS5003;49075;53.988;27.678;2022-08-01T08:10:56;34.7;31;20.7
62981;PMS5003;49075;53.988;27.678;2022-08-01T08:15:56;34.3;31.3;20.5
62981;PMS5003;49075;53.988;27.678;2022-08-01T08:20:56;34.3;32;21.8
62981;PMS5003;49075;53.988;27.678;2022-08-01T08:25:56;35.6;32.6;22.6
62981;PMS5003;49075;53.988;27.678;2022-08-01T08:30:56;27.8;27;18.6
62981;PMS5003;49075;53.988;27.678;2022-08-01T08:35:56;34.3;31.5;21
62981;PMS5003;49075;53.988;27.678;2022-08-01T08:40:56;31.8;29.4;20.8
62981;PMS5003;49075;53.988;27.678;2022-08-01T08:45:56;29.8;28.6;20.2
62981;PMS5003;49075;53.988;27.678;2022-08-01T08:50:56;28.2;27.4;20.2
62981;PMS5003;49075;53.988;27.678;2022-08-01T08:55:56;32.2;30.2;20.2
62981;PMS5003;49075;53.988;27.678;2022-08-01T09:00:56;30.6;29.6;21
62981;PMS5003;49075;53.988;27.678;2022-08-01T09:05:57;32.2;30.4;21.2
62981;PMS5003;49075;53.988;27.678;2022-08-01T09:10:56;31.2;30.4;21.4
62981;PMS5003;49075;53.988;27.678;2022-08-01T09:15:56;29.4;28;19.6
62981;PMS5003;49075;53.988;27.678;2022-08-01T09:21:12;29.8;28.2;20.6
62981;PMS5003;49075;53.988;27.678;2022-08-01T09:25:56;30.2;28.8;20.4
62981;PMS5003;49075;53.988;27.678;2022-08-01T09:30:56;29.2;28.2;20.4
62981;PMS5003;49075;53.988;27.678;2022-08-01T09:35:56;28.5;27.3;20.5
62981;PMS5003;49075;53.988;27.678;2022-08-01T09:40:56;30.6;28.8;21
62981;PMS5003;49075;53.988;27.678;2022-08-01T09:45:56;31.6;29.6;20.6
62981;PMS5003;49075;53.988;27.678;2022-08-01T09:50:57;30.2;28.4;20.4
62981;PMS5003;49075;53.988;27.678;2022-08-01T09:56:07;29.6;28.4;20.4
62981;PMS5003;49075;53.988;27.678;2022-08-01T10:00:57;29;28.2;20.2
62981;PMS5003;49075;53.988;27.678;2022-08-01T10:05:56;24.2;24;17.6
62981;PMS5003;49075;53.988;27.678;2022-08-01T10:11:04;28.4;27.8;19.6
62981;PMS5003;49075;53.988;27.678;2022-08-01T10:15:56;32.8;30;20.8
62981;PMS5003;49075;53.988;27.678;2022-08-01T10:20:56;28.6;26.8;20
62981;PMS5003;49075;53.988;27.678;2022-08-01T10:25:56;29;28;19.4
62981;PMS5003;49075;53.988;27.678;2022-08-01T10:30:56;30;28.8;20
62981;PMS5003;49075;53.988;27.678;2022-08-01T10:35:56;32;29.8;20.8
62981;PMS5003;49075;53.988;27.678;2022-08-01T10:40:56;25.6;25.4;18
62981;PMS5003;49075;53.988;27.678;2022-08-01T10:45:56;30.2;29.4;20.6
62981;PMS5003;49075;53.988;27.678;2022-08-01T10:50:57;25.2;24.2;17.6
62981;PMS5003;49075;53.988;27.678;2022-08-01T10:55:58;27;25.8;18
62981;PMS5003;49075;53.988;27.678;2022-08-01T11:02:02;27.2;26.8;19
62981;PMS5003;49075;53.988;27.678;2022-08-01T11:05:56;28.2;26.6;18.8
62981;PMS5003;49075;53.988;27.678;2022-08-01T11:11:00;26.6;25;17.6
62981;PMS5003;49075;53.988;27.678;2022-08-01T11:15:56;28;26.4;18.6
62981;PMS5003;49075;53.988;27.678;2022-08-01T11:20:56;28.4;26.4;18
62981;PMS5003;49075;53.988;27.678;2022-08-01T11:26:05;25.4;24.6;17.8
62981;PMS5003;49075;53.988;27.678;2022-08-01T11:31:27;24.2;23.6;17
62981;PMS5003;49075;53.988;27.678;2022-08-01T11:36:19;24;22.5;16.8
62981;PMS5003;49075;53.988;27.678;2022-08-01T11:41:28;26;24.4;17.8
62981;PMS5003;49075;53.988;27.678;2022-08-01T11:45:56;25;24.6;17.6
62981;PMS5003;49075;53.988;27.678;2022-08-01T11:50:56;26.8;26.6;18.8
62981;PMS5003;49075;53.988;27.678;2022-08-01T11:55:56;27.2;26.2;18.8
62981;PMS5003;49075;53.988;27.678;2022-08-01T12:00:56;25;24.2;17.4
62981;PMS5003;49075;53.988;27.678;2022-08-01T12:05:56;24.4;24;17.2
62981;PMS5003;49075;53.988;27.678;2022-08-01T12:10:56;30.4;28.8;20.8
62981;PMS5003;49075;53.988;27.678;2022-08-01T12:15:56;30.2;28.2;19.2
62981;PMS5003;49075;53.988;27.678;2022-08-01T12:20:59;27.6;27;18.8
62981;PMS5003;49075;53.988;27.678;2022-08-01T12:25:56;29.8;28.2;19.6
62981;PMS5003;49075;53.988;27.678;2022-08-01T12:30:56;28;27;19
62981;PMS5003;49075;53.988;27.678;2022-08-01T12:35:56;32.5;30.5;20.8
62981;PMS5003;49075;53.988;27.678;2022-08-01T12:40:57;25.6;25.6;19.4
62981;PMS5003;49075;53.988;27.678;2022-08-01T12:45:57;30.4;28.8;20.6
62981;PMS5003;49075;53.988;27.678;2022-08-01T12:50:56;36.2;33.2;22.2
62981;PMS5003;49075;53.988;27.678;2022-08-01T12:55:56;33.8;31.6;22.2
62981;PMS5003;49075;53.988;27.678;2022-08-01T13:01:04;32;29.4;20.2
62981;PMS5003;49075;53.988;27.678;2022-08-01T13:05:57;27.4;26.4;19.4
62981;PMS5003;49075;53.988;27.678;2022-08-01T13:11:04;28.2;27;19.2
62981;PMS5003;49075;53.988;27.678;2022-08-01T13:16:03;36.4;32.4;21.6
62981;PMS5003;49075;53.988;27.678;2022-08-01T13:21:12;29;28;19.8
62981;PMS5003;49075;53.988;27.678;2022-08-01T13:25:56;30.6;29;20.6
62981;PMS5003;49075;53.988;27.678;2022-08-01T13:30:57;28.8;28;19.8
62981;PMS5003;49075;53.988;27.678;2022-08-01T13:35:56;27.8;27.2;19.2
62981;PMS5003;49075;53.988;27.678;2022-08-01T13:40:57;27.3;26.8;19
62981;PMS5003;49075;53.988;27.678;2022-08-01T13:45:56;34.4;31.6;21.4
62981;PMS5003;49075;53.988;27.678;2022-08-01T13:50:56;30.4;29.6;20.4
62981;PMS5003;49075;53.988;27.678;2022-08-01T13:55:56;29.2;28.2;20.4
62981;PMS5003;49075;53.988;27.678;2022-08-01T14:00:56;30.4;28.8;20
62981;PMS5003;49075;53.988;27.678;2022-08-01T14:05:56;31;29.4;21.2
62981;PMS5003;49075;53.988;27.678;2022-08-01T14:10:56;33;30.6;21.6
62981;PMS5003;49075;53.988;27.678;2022-08-01T14:15:56;30.8;29;20.6
62981;PMS5003;49075;53.988;27.678;2022-08-01T14:20:56;29;28.2;20.4
62981;PMS5003;49075;53.988;27.678;2022-08-01T14:25:56;30;28.6;19.6
62981;PMS5003;49075;53.988;27.678;2022-08-01T14:30:56;31;28.4;20.4
62981;PMS5003;49075;53.988;27.678;2022-08-01T14:35:56;29.8;28.8;20.4
62981;PMS5003;49075;53.988;27.678;2022-08-01T14:40:56;32;30.3;20.8
62981;PMS5003;49075;53.988;27.678;2022-08-01T14:45:56;34.8;32.4;22.6
62981;PMS5003;49075;53.988;27.678;2022-08-01T14:50:56;31;29.4;20.8
62981;PMS5003;49075;53.988;27.678;2022-08-01T14:55:56;27.4;26.6;19
62981;PMS5003;49075;53.988;27.678;2022-08-01T15:00:56;29.4;28.2;20
62981;PMS5003;49075;53.988;27.678;2022-08-01T15:05:56;33;30.6;20.4
62981;PMS5003;49075;53.988;27.678;2022-08-01T15:10:56;31;29.4;20.6
62981;PMS5003;49075;53.988;27.678;2022-08-01T15:15:56;35.6;32;22
62981;PMS5003;49075;53.988;27.678;2022-08-01T15:20:56;34;30.4;19.8
62981;PMS5003;49075;53.988;27.678;2022-08-01T15:25:56;26.4;25;17.4
62981;PMS5003;49075;53.988;27.678;2022-08-01T15:30:56;27.2;26.4;18.2
62981;PMS5003;49075;53.988;27.678;2022-08-01T15:35:56;25.4;24.4;18.2
62981;PMS5003;49075;53.988;27.678;2022-08-01T15:40:56;26.3;25.3;17.3
62981;PMS5003;49075;53.988;27.678;2022-08-01T15:45:56;20.4;20;13.8
62981;PMS5003;49075;53.988;27.678;2022-08-01T15:50:56;23;22.4;15.4
62981;PMS5003;49075;53.988;27.678;2022-08-01T15:55:56;43.4;37.2;24.6
62981;PMS5003;49075;53.988;27.678;2022-08-01T16:00:56;46;38.6;25.2
62981;PMS5003;49075;53.988;27.678;2022-08-01T16:05:56;33.6;30.8;20.2
62981;PMS5003;49075;53.988;27.678;2022-08-01T16:10:56;30.2;28.8;19
62981;PMS5003;49075;53.988;27.678;2022-08-01T16:15:56;32.6;29.8;19.6
62981;PMS5003;49075;53.988;27.678;2022-08-01T16:20:56;30.8;29.2;19.4
62981;PMS5003;49075;53.988;27.678;2022-08-01T16:25:56;24.4;23.4;16.2
62981;PMS5003;49075;53.988;27.678;2022-08-01T16:30:56;25.6;24.4;16
62981;PMS5003;49075;53.988;27.678;2022-08-01T16:35:56;22.6;21;13.8
62981;PMS5003;49075;53.988;27.678;2022-08-01T16:40:56;23.5;21.8;15.5
62981;PMS5003;49075;53.988;27.678;2022-08-01T16:45:56;20.6;19.4;13.6
62981;PMS5003;49075;53.988;27.678;2022-08-01T16:50:56;23;21.4;14.4
62981;PMS5003;49075;53.988;27.678;2022-08-01T16:55:56;24.4;23.4;15.4
62981;PMS5003;49075;53.988;27.678;2022-08-01T17:00:56;22;21;14.6
62981;PMS5003;49075;53.988;27.678;2022-08-01T17:05:56;24;23.2;15.6
62981;PMS5003;49075;53.988;27.678;2022-08-01T17:10:56;22.2;21.8;15
62981;PMS5003;49075;53.988;27.678;2022-08-01T17:15:56;41.8;38.2;23.8
62981;PMS5003;49075;53.988;27.678;2022-08-01T17:20:56;46.6;40.4;26
62981;PMS5003;49075;53.988;27.678;2022-08-01T17:25:56;26.6;25.2;16.6
62981;PMS5003;49075;53.988;27.678;2022-08-01T17:30:56;24;22.6;15.4
62981;PMS5003;49075;53.988;27.678;2022-08-01T17:35:56;23.4;22.8;14.6
62981;PMS5003;49075;53.988;27.678;2022-08-01T17:40:56;23.5;23;14.5
62981;PMS5003;49075;53.988;27.678;2022-08-01T17:45:56;22.4;21.6;14.8
62981;PMS5003;49075;53.988;27.678;2022-08-01T17:50:56;53.2;47.8;29.2
62981;PMS5003;49075;53.988;27.678;2022-08-01T17:55:56;55.4;50;29.2
62981;PMS5003;49075;53.988;27.678;2022-08-01T18:00:56;29.4;27;17.6
62981;PMS5003;49075;53.988;27.678;2022-08-01T18:05:57;21.8;21;13.8
62981;PMS5003;49075;53.988;27.678;2022-08-01T18:10:56;20.6;20;13.6
62981;PMS5003;49075;53.988;27.678;2022-08-01T18:15:56;22.6;22;14.6
62981;PMS5003;49075;53.988;27.678;2022-08-01T18:20:56;20.4;19.8;13.8
62981;PMS5003;49075;53.988;27.678;2022-08-01T18:25:56;25.6;23.8;15.8
62981;PMS5003;49075;53.988;27.678;2022-08-01T18:30:56;20.6;20;13.4
62981;PMS5003;49075;53.988;27.678;2022-08-01T18:35:56;19.2;18.6;12.2
62981;PMS5003;49075;53.988;27.678;2022-08-01T18:40:56;19.2;18.6;12.8
62981;PMS5003;49075;53.988;27.678;2022-08-01T18:45:56;17.8;17.5;11.5
62981;PMS5003;49075;53.988;27.678;2022-08-01T18:50:56;17.4;16;10.8
62981;PMS5003;49075;53.988;27.678;2022-08-01T18:55:56;20.2;18.8;13
62981;PMS5003;49075;53.988;27.678;2022-08-01T19:00:56;17.2;17.2;11.8
62981;PMS5003;49075;53.988;27.678;2022-08-01T19:05:56;42.4;37.4;23.2
62981;PMS5003;49075;53.988;27.678;2022-08-01T19:10:56;36.8;32.2;20.4
62981;PMS5003;49075;53.988;27.678;2022-08-01T19:15:56;15.8;15.2;10.8
62981;PMS5003;49075;53.988;27.678;2022-08-01T19:20:56;16.6;16;11.2
62981;PMS5003;49075;53.988;27.678;2022-08-01T19:25:56;14.4;13.6;9
62981;PMS5003;49075;53.988;27.678;2022-08-01T19:30:56;13.8;13.4;9.8
62981;PMS5003;49075;53.988;27.678;2022-08-01T19:35:56;13.2;12;9.6
62981;PMS5003;49075;53.988;27.678;2022-08-01T19:40:56;11.2;11.2;7.6
62981;PMS5003;49075;53.988;27.678;2022-08-01T19:45:56;12.5;12.3;9.3
62981;PMS5003;49075;53.988;27.678;2022-08-01T19:50:56;12.2;12;8.8
62981;PMS5003;49075;53.988;27.678;2022-08-01T19:55:56;15;14.6;10
62981;PMS5003;49075;53.988;27.678;2022-08-01T20:00:56;12.2;12;8.4
62981;PMS5003;49075;53.988;27.678;2022-08-01T20:05:56;15.2;15.2;10.2
62981;PMS5003;49075;53.988;27.678;2022-08-01T20:10:56;11.2;11;7.6
62981;PMS5003;49075;53.988;27.678;2022-08-01T20:15:56;11;10.8;7.8
62981;PMS5003;49075;53.988;27.678;2022-08-01T20:20:56;16;14.8;9
62981;PMS5003;49075;53.988;27.678;2022-08-01T20:25:56;11.4;11;7.2
62981;PMS5003;49075;53.988;27.678;2022-08-01T20:30:58;11;11;7.8
62981;PMS5003;49075;53.988;27.678;2022-08-01T20:35:56;18;17.8;11.2
62981;PMS5003;49075;53.988;27.678;2022-08-01T20:40:56;16.6;15.6;10.8
62981;PMS5003;49075;53.988;27.678;2022-08-01T20:45:56;13.5;13;8
62981;PMS5003;49075;53.988;27.678;2022-08-01T20:50:57;13.6;13;8.2
62981;PMS5003;49075;53.988;27.678;2022-08-01T20:56:02;13.6;13.4;9.6
62981;PMS5003;49075;53.988;27.678;2022-08-01T21:00:56;12.2;11.8;8.4
62981;PMS5003;49075;53.988;27.678;2022-08-01T21:05:59;13.8;13;9.2
62981;PMS5003;49075;53.988;27.678;2022-08-01T21:10:56;13.8;12.6;9.2
62981;PMS5003;49075;53.988;27.678;2022-08-01T21:15:57;14.6;14.2;10.6
62981;PMS5003;49075;53.988;27.678;2022-08-01T21:20:57;15.6;14.2;10.6
62981;PMS5003;49075;53.988;27.678;2022-08-01T21:25:56;13;12.6;9
62981;PMS5003;49075;53.988;27.678;2022-08-01T21:30:57;15.4;13.6;9.6
62981;PMS5003;49075;53.988;27.678;2022-08-01T21:35:57;13.8;13.6;10
62981;PMS5003;49075;53.988;27.678;2022-08-01T21:40:56;13.2;13.2;9
62981;PMS5003;49075;53.988;27.678;2022-08-01T21:45:56;13.8;13.5;9.5
62981;PMS5003;49075;53.988;27.678;2022-08-01T21:50:58;13;12.8;8.8
62981;PMS5003;49075;53.988;27.678;2022-08-01T21:56:00;12.8;12.6;8.8
62981;PMS5003;49075;53.988;27.678;2022-08-01T22:01:02;11.8;11.6;7.6
62981;PMS5003;49075;53.988;27.678;2022-08-01T22:05:56;12.6;12.4;9.2
62981;PMS5003;49075;53.988;27.678;2022-08-01T22:10:58;14.4;13.8;9.4
62981;PMS5003;49075;53.988;27.678;2022-08-01T22:15:56;12.2;12.2;9
62981;PMS5003;49075;53.988;27.678;2022-08-01T22:20:56;12.4;12.4;8.6
62981;PMS5003;49075;53.988;27.678;2022-08-01T22:25:56;11.6;11.4;8.2
62981;PMS5003;49075;53.988;27.678;2022-08-01T22:30:56;11.2;11.2;7.6
62981;PMS5003;49075;53.988;27.678;2022-08-01T22:35:56;13.8;13;9
62981;PMS5003;49075;53.988;27.678;2022-08-01T22:41:04;11.6;11.4;8.2
62981;PMS5003;49075;53.988;27.678;2022-08-01T22:46:07;12.8;12.6;8.2
62981;PMS5003;49075;53.988;27.678;2022-08-01T22:50:57;13.8;12.8;8.8
62981;PMS5003;49075;53.988;27.678;2022-08-01T22:55:56;14.2;13.8;9.6
62981;PMS5003;49075;53.988;27.678;2022-08-01T23:00:58;15;14.3;9.5
62981;PMS5003;49075;53.988;27.678;2022-08-01T23:06:06;12.8;12.5;9
62981;PMS5003;49075;53.988;27.678;2022-08-01T23:10:56;13;12.4;9.2
62981;PMS5003;49075;53.988;27.678;2022-08-01T23:15:56;13.8;13.4;9.6
62981;PMS5003;49075;53.988;27.678;2022-08-01T23:20:56;13.6;13.6;10
62981;PMS5003;49075;53.988;27.678;2022-08-01T23:25:56;14.2;13.4;9.2
62981;PMS5003;49075;53.988;27.678;2022-08-01T23:30:56;14.8;14.2;9.6
62981;PMS5003;49075;53.988;27.678;2022-08-01T23:35:56;15.4;14.6;9.6
62981;PMS5003;49075;53.988;27.678;2022-08-01T23:40:56;12;12;8.4
62981;PMS5003;49075;53.988;27.678;2022-08-01T23:45:56;13.8;13.4;9.6
62981;PMS5003;49075;53.988;27.678;2022-08-01T23:50:56;14.4;14;10.6
62981;PMS5003;49075;53.988;27.678;2022-08-01T23:55:56;15.2;14;9.6
